Time;durP1;ratioP1;P1;durP2;ratioP2;P2;SDS_P1;SDS_P2;PMS_P1;PMS_P2;Temp;Humidity;BMP_temperature;BMP_pressure;BME280_temperature;BME280_humidity;BME280_pressure;Samples;Min_cycle;Max_cycle;Signal;HPM_P1;HPM_P2
2021/10/24 00:00:09;;;;;;;;;;;24.10;28.40;;;;;;484638;246;1179;-73
2021/10/24 00:02:10;;;;;;;;;;;24.00;28.50;;;;;;484535;246;1220;-73
2021/10/24 00:04:12;;;;;;;;;;;24.00;28.50;;;;;;484622;246;1086;-73
2021/10/24 00:06:13;;;;;;;;;;;24.10;28.50;;;;;;484495;246;1414;-73
2021/10/24 00:08:14;;;;;;;;;;;24.10;28.40;;;;;;484615;246;1188;-73
2021/10/24 00:10:16;;;;;;;;;;;24.10;28.40;;;;;;484662;246;925;-73
2021/10/24 00:12:17;;;;;;;;;;;24.10;28.40;;;;;;484598;246;1544;-73
2021/10/24 00:14:18;;;;;;;;;;;24.10;28.40;;;;;;484625;246;1125;-73
2021/10/24 00:16:20;;;;;;;;;;;24.10;28.40;;;;;;484549;246;1265;-73
2021/10/24 00:18:21;;;;;;;;;;;24.10;28.40;;;;;;484542;246;2191;-73
2021/10/24 00:20:22;;;;;;;;;;;24.10;28.40;;;;;;484554;246;953;-73
2021/10/24 00:22:24;;;;;;;;;;;24.00;28.40;;;;;;484552;246;1112;-73
2021/10/24 00:24:25;;;;;;;;;;;24.10;28.40;;;;;;484535;246;980;-73
2021/10/24 00:26:26;;;;;;;;;;;24.10;28.40;;;;;;484594;246;1146;-73
2021/10/24 00:28:28;;;;;;;;;;;24.00;28.40;;;;;;484643;246;1042;-74
2021/10/24 00:30:29;;;;;;;;;;;24.00;28.50;;;;;;484649;246;1164;-74
2021/10/24 00:32:30;;;;;;;;;;;24.00;28.40;;;;;;484621;246;965;-74
2021/10/24 00:34:31;;;;;;;;;;;24.00;28.50;;;;;;484542;246;1104;-74
2021/10/24 00:36:33;;;;;;;;;;;24.00;28.40;;;;;;484451;246;1206;-74
2021/10/24 00:38:34;;;;;;;;;;;24.10;28.40;;;;;;484567;246;2200;-74
2021/10/24 00:40:36;;;;;;;;;;;24.10;28.30;;;;;;484762;246;1050;-73
2021/10/24 00:42:37;;;;;;;;;;;24.00;28.40;;;;;;484613;246;1215;-73
2021/10/24 00:44:38;;;;;;;;;;;24.00;28.30;;;;;;484533;246;1145;-73
2021/10/24 00:46:40;;;;;;;;;;;24.00;28.30;;;;;;484448;246;1176;-73
2021/10/24 00:48:41;;;;;;;;;;;24.10;28.40;;;;;;484685;246;1097;-73
2021/10/24 00:50:42;;;;;;;;;;;24.10;28.40;;;;;;484571;242;1033;-73
2021/10/24 00:52:44;;;;;;;;;;;24.00;28.30;;;;;;484602;246;1130;-73
2021/10/24 00:54:45;;;;;;;;;;;24.10;28.40;;;;;;484729;246;946;-73
2021/10/24 00:56:49;;;;;;;;;;;24.00;28.30;;;;;;484582;246;1217;-73
2021/10/24 00:58:50;;;;;;;;;;;24.00;28.40;;;;;;484434;246;2131;-73
2021/10/24 01:00:49;;;;;;;;;;;24.00;28.40;;;;;;484368;246;1387;-73
2021/10/24 01:02:50;;;;;;;;;;;24.10;28.40;;;;;;484703;246;1033;-73
2021/10/24 01:04:52;;;;;;;;;;;24.10;28.40;;;;;;484476;246;966;-73
2021/10/24 01:06:54;;;;;;;;;;;23.90;28.40;;;;;;484570;246;1181;-73
2021/10/24 01:08:54;;;;;;;;;;;24.10;28.40;;;;;;484681;246;1400;-73
2021/10/24 01:10:56;;;;;;;;;;;24.10;28.40;;;;;;484638;246;1061;-74
2021/10/24 01:12:57;;;;;;;;;;;24.00;28.40;;;;;;484617;246;1031;-74
2021/10/24 01:14:58;;;;;;;;;;;24.00;28.40;;;;;;484610;246;1072;-74
2021/10/24 01:17:00;;;;;;;;;;;24.00;28.50;;;;;;484620;246;1302;-73
2021/10/24 01:19:01;;;;;;;;;;;24.00;28.40;;;;;;484618;246;2129;-73
2021/10/24 01:21:02;;;;;;;;;;;23.90;28.50;;;;;;484543;246;942;-73
2021/10/24 01:23:04;;;;;;;;;;;23.90;28.50;;;;;;484605;246;981;-73
2021/10/24 01:25:05;;;;;;;;;;;23.90;28.50;;;;;;484552;246;949;-73
2021/10/24 01:27:06;;;;;;;;;;;24.00;28.40;;;;;;484398;246;975;-73
2021/10/24 01:29:08;;;;;;;;;;;24.00;28.40;;;;;;484528;246;1022;-73
2021/10/24 01:31:09;;;;;;;;;;;24.00;28.40;;;;;;484728;246;1153;-73
2021/10/24 01:33:12;;;;;;;;;;;23.90;28.40;;;;;;484711;246;1057;-73
2021/10/24 01:35:12;;;;;;;;;;;23.90;28.50;;;;;;484544;246;1481;-73
2021/10/24 01:37:13;;;;;;;;;;;23.90;28.50;;;;;;484427;246;1058;-73
2021/10/24 01:39:15;;;;;;;;;;;24.00;28.40;;;;;;484587;246;2120;-73
2021/10/24 01:41:16;;;;;;;;;;;24.00;28.40;;;;;;484538;246;1513;-73
2021/10/24 01:43:17;;;;;;;;;;;24.00;28.40;;;;;;484606;246;1093;-73
2021/10/24 01:45:19;;;;;;;;;;;23.90;28.40;;;;;;484625;246;990;-73
2021/10/24 01:47:20;;;;;;;;;;;24.00;28.30;;;;;;484548;246;1192;-73
2021/10/24 01:49:21;;;;;;;;;;;24.00;28.30;;;;;;484703;246;1118;-73
2021/10/24 01:51:22;;;;;;;;;;;24.00;28.30;;;;;;484613;246;1146;-73
2021/10/24 01:53:24;;;;;;;;;;;24.00;28.40;;;;;;484680;246;1341;-73
2021/10/24 01:55:25;;;;;;;;;;;24.10;28.30;;;;;;484571;246;960;-73
2021/10/24 01:57:26;;;;;;;;;;;24.00;28.30;;;;;;484548;246;1286;-73
2021/10/24 01:59:28;;;;;;;;;;;24.00;28.40;;;;;;484669;246;2137;-73
2021/10/24 02:01:29;;;;;;;;;;;24.00;28.30;;;;;;484601;246;1276;-73
2021/10/24 02:03:30;;;;;;;;;;;24.00;28.30;;;;;;484674;246;988;-73
2021/10/24 02:05:32;;;;;;;;;;;24.00;28.30;;;;;;484624;246;1218;-73
2021/10/24 02:07:33;;;;;;;;;;;24.00;28.40;;;;;;484491;246;1202;-73
2021/10/24 02:09:34;;;;;;;;;;;23.90;28.40;;;;;;484669;246;968;-73
2021/10/24 02:11:36;;;;;;;;;;;24.00;28.40;;;;;;484546;246;1295;-73
2021/10/24 02:13:37;;;;;;;;;;;24.00;28.30;;;;;;484676;246;945;-73
2021/10/24 02:15:38;;;;;;;;;;;24.00;28.30;;;;;;484587;246;1216;-73
2021/10/24 02:17:40;;;;;;;;;;;24.10;28.30;;;;;;484574;246;1242;-73
2021/10/24 02:19:41;;;;;;;;;;;24.00;28.30;;;;;;484645;246;2187;-73
2021/10/24 02:21:42;;;;;;;;;;;24.00;28.40;;;;;;484546;246;1217;-73
2021/10/24 02:23:44;;;;;;;;;;;24.00;28.40;;;;;;484619;246;984;-73
2021/10/24 02:25:45;;;;;;;;;;;23.90;28.30;;;;;;484515;246;1157;-73
2021/10/24 02:27:46;;;;;;;;;;;24.00;28.30;;;;;;484673;246;1068;-73
2021/10/24 02:29:48;;;;;;;;;;;24.00;28.40;;;;;;484643;246;972;-74
2021/10/24 02:31:49;;;;;;;;;;;24.00;28.30;;;;;;484671;241;1224;-74
2021/10/24 02:33:50;;;;;;;;;;;23.80;28.30;;;;;;484516;246;1114;-74
2021/10/24 02:35:52;;;;;;;;;;;23.90;28.30;;;;;;484707;246;1258;-74
2021/10/24 02:37:53;;;;;;;;;;;23.90;28.30;;;;;;484524;246;1566;-74
2021/10/24 02:39:54;;;;;;;;;;;23.90;28.30;;;;;;484633;246;2195;-74
2021/10/24 02:41:56;;;;;;;;;;;23.90;28.30;;;;;;484636;246;987;-73
2021/10/24 02:43:57;;;;;;;;;;;23.90;28.30;;;;;;484728;246;1094;-73
2021/10/24 02:45:58;;;;;;;;;;;23.90;28.30;;;;;;484580;246;1041;-73
2021/10/24 02:48:00;;;;;;;;;;;23.80;28.40;;;;;;484576;246;1102;-73
2021/10/24 02:50:01;;;;;;;;;;;23.90;28.40;;;;;;484629;246;1034;-73
2021/10/24 02:52:02;;;;;;;;;;;23.90;28.30;;;;;;484678;246;1100;-73
2021/10/24 02:54:04;;;;;;;;;;;23.90;28.30;;;;;;484636;246;1110;-73
2021/10/24 02:56:05;;;;;;;;;;;23.90;28.30;;;;;;484454;246;1062;-73
2021/10/24 02:58:07;;;;;;;;;;;24.00;28.30;;;;;;484507;246;1068;-73
2021/10/24 03:00:08;;;;;;;;;;;24.00;28.30;;;;;;484610;246;2132;-73
2021/10/24 03:02:09;;;;;;;;;;;24.00;28.20;;;;;;484555;246;1093;-73
2021/10/24 03:04:11;;;;;;;;;;;24.00;28.20;;;;;;484592;246;946;-73
2021/10/24 03:06:12;;;;;;;;;;;24.00;28.20;;;;;;484499;246;1023;-73
2021/10/24 03:08:13;;;;;;;;;;;24.00;28.20;;;;;;484583;246;1048;-73
2021/10/24 03:10:15;;;;;;;;;;;24.00;28.20;;;;;;484600;246;971;-73
2021/10/24 03:12:16;;;;;;;;;;;24.10;28.20;;;;;;484536;246;1145;-73
2021/10/24 03:14:17;;;;;;;;;;;24.10;28.10;;;;;;484651;246;996;-73
2021/10/24 03:16:19;;;;;;;;;;;24.20;28.00;;;;;;484613;246;1266;-73
2021/10/24 03:18:20;;;;;;;;;;;24.10;28.00;;;;;;484641;246;994;-73
2021/10/24 03:20:21;;;;;;;;;;;24.20;28.00;;;;;;484625;246;2195;-73
2021/10/24 03:22:23;;;;;;;;;;;24.10;28.10;;;;;;484609;246;1421;-73
2021/10/24 03:24:24;;;;;;;;;;;24.10;28.10;;;;;;484646;246;960;-73
2021/10/24 03:26:25;;;;;;;;;;;24.10;28.10;;;;;;484610;246;1232;-73
2021/10/24 03:28:26;;;;;;;;;;;24.10;28.10;;;;;;484601;246;981;-73
2021/10/24 03:30:28;;;;;;;;;;;24.10;28.20;;;;;;484578;246;950;-73
2021/10/24 03:32:29;;;;;;;;;;;23.90;28.20;;;;;;484529;246;1335;-73
2021/10/24 03:34:30;;;;;;;;;;;23.90;28.20;;;;;;484590;245;1154;-73
2021/10/24 03:36:32;;;;;;;;;;;23.90;28.30;;;;;;484495;246;1309;-73
2021/10/24 03:38:33;;;;;;;;;;;23.90;28.30;;;;;;484591;246;1081;-73
2021/10/24 03:40:34;;;;;;;;;;;23.90;28.20;;;;;;484539;246;2176;-73
2021/10/24 03:42:36;;;;;;;;;;;23.90;28.20;;;;;;484534;246;1215;-73
2021/10/24 03:44:37;;;;;;;;;;;23.90;28.20;;;;;;484563;246;1038;-73
2021/10/24 03:46:38;;;;;;;;;;;23.80;28.30;;;;;;484555;246;1280;-73
2021/10/24 03:48:40;;;;;;;;;;;23.90;28.20;;;;;;484582;246;1115;-73
2021/10/24 03:50:41;;;;;;;;;;;23.90;28.20;;;;;;484544;246;1067;-73
2021/10/24 03:52:42;;;;;;;;;;;23.80;28.30;;;;;;484599;246;1225;-73
2021/10/24 03:54:44;;;;;;;;;;;23.90;28.30;;;;;;484535;246;1128;-73
2021/10/24 03:56:45;;;;;;;;;;;23.90;28.20;;;;;;484523;246;972;-73
2021/10/24 03:58:46;;;;;;;;;;;23.80;28.20;;;;;;484640;246;1123;-73
2021/10/24 04:00:48;;;;;;;;;;;23.90;28.20;;;;;;484625;246;2191;-73
2021/10/24 04:02:49;;;;;;;;;;;23.90;28.20;;;;;;484613;246;1213;-73
2021/10/24 04:04:50;;;;;;;;;;;23.80;28.20;;;;;;484661;246;975;-73
2021/10/24 04:06:52;;;;;;;;;;;23.80;28.20;;;;;;484613;246;1381;-73
2021/10/24 04:08:53;;;;;;;;;;;23.90;28.20;;;;;;484632;246;964;-73
2021/10/24 04:10:55;;;;;;;;;;;23.90;28.20;;;;;;484583;246;964;-73
2021/10/24 04:12:56;;;;;;;;;;;23.80;28.20;;;;;;484635;246;1209;-73
2021/10/24 04:14:57;;;;;;;;;;;23.80;28.20;;;;;;484635;246;985;-73
2021/10/24 04:16:58;;;;;;;;;;;23.80;28.20;;;;;;484571;246;1224;-73
2021/10/24 04:19:00;;;;;;;;;;;23.90;28.20;;;;;;484672;246;975;-73
2021/10/24 04:21:01;;;;;;;;;;;23.90;28.20;;;;;;484560;246;2384;-73
2021/10/24 04:23:02;;;;;;;;;;;23.80;28.20;;;;;;484605;246;946;-73
2021/10/24 04:25:04;;;;;;;;;;;23.90;28.10;;;;;;484560;246;960;-73
2021/10/24 04:27:05;;;;;;;;;;;23.80;28.10;;;;;;484466;246;1029;-73
2021/10/24 04:29:06;;;;;;;;;;;23.90;28.20;;;;;;484594;246;1243;-73
2021/10/24 04:31:08;;;;;;;;;;;23.90;28.10;;;;;;484553;246;1129;-73
2021/10/24 04:33:09;;;;;;;;;;;23.80;28.10;;;;;;484614;246;1193;-73
2021/10/24 04:35:10;;;;;;;;;;;23.80;28.20;;;;;;484666;246;970;-73
2021/10/24 04:37:12;;;;;;;;;;;23.90;28.10;;;;;;484528;246;1131;-74
2021/10/24 04:39:13;;;;;;;;;;;23.90;28.10;;;;;;484575;246;1106;-74
2021/10/24 04:41:15;;;;;;;;;;;23.80;28.10;;;;;;484468;246;2183;-74
2021/10/24 04:43:16;;;;;;;;;;;23.90;28.10;;;;;;484642;246;1234;-74
2021/10/24 04:45:17;;;;;;;;;;;23.80;28.10;;;;;;484523;246;1062;-74
2021/10/24 04:47:19;;;;;;;;;;;23.80;28.10;;;;;;484506;246;1112;-73
2021/10/24 04:49:21;;;;;;;;;;;23.90;28.00;;;;;;484589;246;971;-73
2021/10/24 04:51:21;;;;;;;;;;;23.70;28.10;;;;;;484468;246;1426;-73
2021/10/24 04:53:23;;;;;;;;;;;23.70;28.20;;;;;;484566;246;1073;-73
2021/10/24 04:55:25;;;;;;;;;;;23.80;28.10;;;;;;484620;246;965;-73
2021/10/24 04:57:26;;;;;;;;;;;23.60;28.10;;;;;;484663;246;1179;-73
2021/10/24 04:59:27;;;;;;;;;;;23.10;28.60;;;;;;484651;246;1093;-73
2021/10/24 05:01:29;;;;;;;;;;;23.00;28.70;;;;;;484545;246;2187;-73
2021/10/24 05:03:30;;;;;;;;;;;23.10;28.80;;;;;;484694;246;1446;-73
2021/10/24 05:05:31;;;;;;;;;;;23.00;28.90;;;;;;484568;246;998;-73
2021/10/24 05:07:33;;;;;;;;;;;23.00;28.90;;;;;;484567;246;1025;-73
2021/10/24 05:09:34;;;;;;;;;;;22.80;29.00;;;;;;484638;246;1041;-73
2021/10/24 05:11:35;;;;;;;;;;;22.80;29.00;;;;;;484499;246;1219;-73
2021/10/24 05:13:37;;;;;;;;;;;22.80;29.00;;;;;;484600;246;1072;-73
2021/10/24 05:15:38;;;;;;;;;;;22.80;29.00;;;;;;484463;246;1391;-73
2021/10/24 05:17:39;;;;;;;;;;;22.80;28.90;;;;;;484564;246;1151;-73
2021/10/24 05:19:41;;;;;;;;;;;22.90;28.90;;;;;;484597;246;2125;-73
2021/10/24 05:21:42;;;;;;;;;;;22.80;29.00;;;;;;484585;246;1208;-73
2021/10/24 05:23:43;;;;;;;;;;;22.80;29.00;;;;;;484646;246;950;-73
2021/10/24 05:25:44;;;;;;;;;;;22.60;29.10;;;;;;484593;246;1139;-73
2021/10/24 05:27:48;;;;;;;;;;;22.40;29.30;;;;;;484577;246;1113;-73
2021/10/24 05:29:48;;;;;;;;;;;22.70;29.20;;;;;;484607;246;1427;-73
2021/10/24 05:31:49;;;;;;;;;;;22.90;29.00;;;;;;484575;246;1185;-73
2021/10/24 05:33:51;;;;;;;;;;;23.30;28.70;;;;;;484654;246;1258;-73
2021/10/24 05:35:53;;;;;;;;;;;23.50;28.30;;;;;;484574;246;941;-73
2021/10/24 05:37:54;;;;;;;;;;;23.70;28.20;;;;;;484484;246;1328;-73
2021/10/24 05:39:55;;;;;;;;;;;23.90;28.00;;;;;;484672;246;2203;-73
2021/10/24 05:41:57;;;;;;;;;;;24.00;27.80;;;;;;484493;243;1140;-73
2021/10/24 05:43:58;;;;;;;;;;;24.00;27.80;;;;;;484562;246;1066;-73
2021/10/24 05:45:59;;;;;;;;;;;24.00;27.80;;;;;;484646;246;976;-73
2021/10/24 05:48:01;;;;;;;;;;;24.10;27.80;;;;;;484617;246;1147;-73
2021/10/24 05:50:02;;;;;;;;;;;24.10;27.70;;;;;;484722;246;1021;-73
2021/10/24 05:52:03;;;;;;;;;;;24.10;27.70;;;;;;484635;246;1153;-73
2021/10/24 05:54:05;;;;;;;;;;;24.10;27.70;;;;;;484671;246;996;-73
2021/10/24 05:56:06;;;;;;;;;;;24.20;27.70;;;;;;484589;246;1164;-73
2021/10/24 05:58:07;;;;;;;;;;;24.30;27.60;;;;;;484580;246;1313;-73
2021/10/24 06:00:09;;;;;;;;;;;24.30;27.60;;;;;;484570;246;2191;-73
2021/10/24 06:02:10;;;;;;;;;;;24.30;27.60;;;;;;484533;246;1059;-73
2021/10/24 06:04:11;;;;;;;;;;;24.40;27.50;;;;;;484595;246;1191;-73
2021/10/24 06:06:13;;;;;;;;;;;24.40;27.40;;;;;;484627;243;1225;-73
2021/10/24 06:08:21;;;;;;;;;;;24.50;27.40;;;;;;484605;246;1137;-73
2021/10/24 06:10:22;;;;;;;;;;;24.50;27.50;;;;;;484610;246;1451;-73
2021/10/24 06:12:41;;;;;;;;;;;24.40;27.50;;;;;;484568;246;1465;-73
2021/10/24 06:14:40;;;;;;;;;;;24.40;27.50;;;;;;484525;246;1420;-73
2021/10/24 06:16:41;;;;;;;;;;;24.40;27.40;;;;;;484492;246;1247;-73
2021/10/24 06:18:43;;;;;;;;;;;24.60;27.40;;;;;;484651;246;1144;-73
2021/10/24 06:20:44;;;;;;;;;;;24.50;27.40;;;;;;484627;243;2188;-73
2021/10/24 06:22:45;;;;;;;;;;;24.50;27.40;;;;;;484599;246;1118;-73
2021/10/24 06:24:47;;;;;;;;;;;24.50;27.40;;;;;;484669;246;957;-73
2021/10/24 06:26:48;;;;;;;;;;;24.50;27.30;;;;;;484594;246;1228;-73
2021/10/24 06:28:50;;;;;;;;;;;24.60;27.40;;;;;;484553;246;1125;-73
2021/10/24 06:30:51;;;;;;;;;;;24.50;27.40;;;;;;484611;246;949;-73
2021/10/24 06:32:52;;;;;;;;;;;24.50;27.40;;;;;;484598;246;1093;-73
2021/10/24 06:34:53;;;;;;;;;;;24.60;27.40;;;;;;484626;246;1170;-73
2021/10/24 06:36:55;;;;;;;;;;;24.50;27.50;;;;;;484578;244;1271;-73
2021/10/24 06:38:56;;;;;;;;;;;24.50;27.50;;;;;;484607;246;1322;-73
2021/10/24 06:40:57;;;;;;;;;;;24.50;27.40;;;;;;484648;246;2183;-73
2021/10/24 06:42:59;;;;;;;;;;;24.50;27.50;;;;;;484689;246;1143;-73
2021/10/24 06:45:00;;;;;;;;;;;24.50;27.50;;;;;;484562;246;967;-73
2021/10/24 06:47:01;;;;;;;;;;;24.50;27.50;;;;;;484621;246;1162;-73
2021/10/24 06:49:03;;;;;;;;;;;24.50;27.50;;;;;;484631;246;1166;-73
2021/10/24 06:51:04;;;;;;;;;;;24.60;27.40;;;;;;484624;246;1063;-73
2021/10/24 06:53:06;;;;;;;;;;;24.60;27.50;;;;;;484685;245;1154;-73
2021/10/24 06:55:07;;;;;;;;;;;24.50;27.50;;;;;;484668;246;969;-73
2021/10/24 06:57:08;;;;;;;;;;;24.60;27.50;;;;;;484596;246;1219;-73
2021/10/24 06:59:10;;;;;;;;;;;24.60;27.50;;;;;;484616;246;1134;-73
2021/10/24 07:01:11;;;;;;;;;;;24.50;27.60;;;;;;484560;246;2183;-73
2021/10/24 07:03:12;;;;;;;;;;;24.50;27.60;;;;;;484602;246;1342;-73
2021/10/24 07:05:14;;;;;;;;;;;24.60;27.50;;;;;;484650;246;956;-73
2021/10/24 07:07:20;;;;;;;;;;;24.60;27.50;;;;;;484625;246;1023;-73
2021/10/24 07:09:16;;;;;;;;;;;24.60;27.50;;;;;;484435;246;1369;-73
2021/10/24 07:11:18;;;;;;;;;;;24.60;27.60;;;;;;484685;246;1107;-73
2021/10/24 07:13:19;;;;;;;;;;;24.50;27.60;;;;;;484659;246;1090;-73
2021/10/24 07:15:20;;;;;;;;;;;24.50;27.60;;;;;;484608;246;1068;-73
2021/10/24 07:17:22;;;;;;;;;;;24.50;27.60;;;;;;484543;246;1111;-73
2021/10/24 07:19:23;;;;;;;;;;;24.60;27.70;;;;;;484626;246;1182;-73
2021/10/24 07:21:24;;;;;;;;;;;24.50;27.70;;;;;;484500;246;2187;-73
2021/10/24 07:23:26;;;;;;;;;;;24.50;27.70;;;;;;484503;246;1165;-73
2021/10/24 07:25:27;;;;;;;;;;;24.60;27.80;;;;;;484637;246;933;-73
2021/10/24 07:27:28;;;;;;;;;;;24.50;27.80;;;;;;484616;246;1124;-73
2021/10/24 07:29:30;;;;;;;;;;;24.50;27.80;;;;;;484584;246;984;-73
2021/10/24 07:31:31;;;;;;;;;;;24.50;27.80;;;;;;484477;246;1156;-73
2021/10/24 07:33:32;;;;;;;;;;;24.50;27.90;;;;;;484588;246;1189;-73
2021/10/24 07:35:34;;;;;;;;;;;24.50;27.80;;;;;;484614;246;1230;-73
2021/10/24 07:37:35;;;;;;;;;;;24.40;27.90;;;;;;484591;246;1136;-73
2021/10/24 07:39:36;;;;;;;;;;;24.50;27.90;;;;;;484657;246;961;-73
2021/10/24 07:41:38;;;;;;;;;;;24.50;27.90;;;;;;484518;246;2187;-73
2021/10/24 07:43:39;;;;;;;;;;;24.50;27.90;;;;;;484546;246;936;-73
2021/10/24 07:45:41;;;;;;;;;;;24.50;28.00;;;;;;484506;246;1220;-74
2021/10/24 07:47:42;;;;;;;;;;;24.40;28.10;;;;;;484608;246;1072;-74
2021/10/24 07:49:43;;;;;;;;;;;24.50;28.00;;;;;;484652;246;1162;-74
2021/10/24 07:51:45;;;;;;;;;;;24.50;28.00;;;;;;484562;246;1213;-74
2021/10/24 07:53:46;;;;;;;;;;;24.50;28.00;;;;;;484737;246;987;-74
2021/10/24 07:55:47;;;;;;;;;;;24.50;28.10;;;;;;484573;246;1035;-74
2021/10/24 07:57:49;;;;;;;;;;;24.50;28.10;;;;;;484674;246;1280;-74
2021/10/24 07:59:50;;;;;;;;;;;24.60;28.00;;;;;;484532;246;1025;-74
2021/10/24 08:01:51;;;;;;;;;;;24.50;28.20;;;;;;484415;246;2148;-73
2021/10/24 08:03:53;;;;;;;;;;;24.60;28.20;;;;;;484483;246;1171;-73
2021/10/24 08:05:54;;;;;;;;;;;24.50;28.20;;;;;;484678;246;960;-73
2021/10/24 08:07:55;;;;;;;;;;;24.50;28.20;;;;;;484595;246;1103;-73
2021/10/24 08:09:57;;;;;;;;;;;24.50;28.20;;;;;;484583;246;1045;-73
2021/10/24 08:11:58;;;;;;;;;;;24.50;28.30;;;;;;484539;246;1213;-73
2021/10/24 08:13:59;;;;;;;;;;;24.50;28.30;;;;;;484521;246;1055;-74
2021/10/24 08:16:01;;;;;;;;;;;24.60;28.40;;;;;;484546;246;964;-74
2021/10/24 08:18:03;;;;;;;;;;;24.40;28.50;;;;;;484495;246;940;-74
2021/10/24 08:20:03;;;;;;;;;;;24.50;28.40;;;;;;484601;246;1337;-74
2021/10/24 08:22:04;;;;;;;;;;;24.60;28.40;;;;;;484571;246;2139;-74
2021/10/24 08:24:06;;;;;;;;;;;24.60;28.40;;;;;;484599;246;1078;-74
2021/10/24 08:26:07;;;;;;;;;;;24.60;28.40;;;;;;484545;246;1205;-74
2021/10/24 08:28:08;;;;;;;;;;;24.60;28.40;;;;;;484434;246;988;-74
2021/10/24 08:30:10;;;;;;;;;;;24.60;28.50;;;;;;484459;246;963;-74
2021/10/24 08:32:11;;;;;;;;;;;24.60;28.60;;;;;;484498;246;1107;-74
2021/10/24 08:34:12;;;;;;;;;;;24.60;28.60;;;;;;484583;246;1188;-74
2021/10/24 08:36:14;;;;;;;;;;;24.50;28.60;;;;;;484546;246;1358;-74
2021/10/24 08:38:15;;;;;;;;;;;24.60;28.70;;;;;;484497;246;974;-74
2021/10/24 08:40:16;;;;;;;;;;;24.50;28.80;;;;;;484595;246;936;-74
2021/10/24 08:42:18;;;;;;;;;;;24.60;28.80;;;;;;484576;246;2183;-74
2021/10/24 08:44:19;;;;;;;;;;;24.50;28.90;;;;;;484582;246;979;-74
2021/10/24 08:46:20;;;;;;;;;;;24.50;28.90;;;;;;484505;246;985;-74
2021/10/24 08:48:22;;;;;;;;;;;24.40;29.00;;;;;;484577;246;1038;-74
2021/10/24 08:50:23;;;;;;;;;;;24.50;29.00;;;;;;484642;246;1089;-74
2021/10/24 08:52:25;;;;;;;;;;;24.50;28.90;;;;;;484478;246;1118;-74
2021/10/24 08:54:27;;;;;;;;;;;24.50;29.00;;;;;;484580;246;1072;-74
2021/10/24 08:56:28;;;;;;;;;;;24.50;29.10;;;;;;484515;246;1561;-74
2021/10/24 08:58:28;;;;;;;;;;;24.50;29.00;;;;;;484622;246;1387;-74
2021/10/24 09:00:30;;;;;;;;;;;24.40;29.00;;;;;;484502;246;945;-74
2021/10/24 09:02:31;;;;;;;;;;;24.40;29.20;;;;;;484518;246;2133;-74
2021/10/24 09:04:32;;;;;;;;;;;24.40;29.20;;;;;;484607;246;1243;-74
2021/10/24 09:06:34;;;;;;;;;;;24.40;29.20;;;;;;484621;246;1073;-74
2021/10/24 09:08:35;;;;;;;;;;;24.40;29.20;;;;;;484701;246;1072;-74
2021/10/24 09:10:36;;;;;;;;;;;24.50;29.20;;;;;;484607;246;985;-74
2021/10/24 09:12:38;;;;;;;;;;;24.50;29.20;;;;;;484620;246;1136;-74
2021/10/24 09:14:39;;;;;;;;;;;24.50;29.30;;;;;;484494;246;1074;-74
2021/10/24 09:16:40;;;;;;;;;;;24.50;29.30;;;;;;484493;243;1321;-74
2021/10/24 09:18:43;;;;;;;;;;;24.50;29.30;;;;;;484504;246;1204;-74
2021/10/24 09:20:43;;;;;;;;;;;24.50;29.40;;;;;;484397;246;1435;-73
2021/10/24 09:22:44;;;;;;;;;;;24.50;29.40;;;;;;484513;246;2200;-73
2021/10/24 09:24:46;;;;;;;;;;;24.60;29.30;;;;;;484479;246;953;-74
2021/10/24 09:26:47;;;;;;;;;;;24.60;29.30;;;;;;484453;243;1269;-74
2021/10/24 09:28:48;;;;;;;;;;;24.50;29.40;;;;;;484549;246;1078;-74
2021/10/24 09:30:50;;;;;;;;;;;24.50;29.40;;;;;;484445;246;1093;-74
2021/10/24 09:32:51;;;;;;;;;;;24.50;29.50;;;;;;484649;246;1029;-73
2021/10/24 09:34:52;;;;;;;;;;;24.60;29.50;;;;;;484510;246;1147;-73
2021/10/24 09:36:54;;;;;;;;;;;24.50;29.50;;;;;;484493;246;1257;-73
2021/10/24 09:38:55;;;;;;;;;;;24.60;29.50;;;;;;484517;246;986;-73
2021/10/24 09:40:57;;;;;;;;;;;24.60;29.60;;;;;;484533;246;943;-73
2021/10/24 09:42:58;;;;;;;;;;;24.50;29.70;;;;;;484665;246;2184;-73
2021/10/24 09:45:00;;;;;;;;;;;24.40;29.70;;;;;;484534;246;1030;-73
2021/10/24 09:47:01;;;;;;;;;;;24.50;29.60;;;;;;484535;246;1459;-73
2021/10/24 09:49:03;;;;;;;;;;;24.50;29.60;;;;;;484615;246;1052;-73
2021/10/24 09:51:07;;;;;;;;;;;24.50;29.70;;;;;;484500;246;1189;-73
2021/10/24 09:53:05;;;;;;;;;;;24.50;29.70;;;;;;484399;246;1330;-73
2021/10/24 09:55:07;;;;;;;;;;;24.60;29.60;;;;;;484655;246;1024;-73
2021/10/24 09:57:08;;;;;;;;;;;24.60;29.60;;;;;;484434;246;1118;-73
2021/10/24 09:59:09;;;;;;;;;;;24.60;29.60;;;;;;484520;246;1216;-73
2021/10/24 10:01:11;;;;;;;;;;;24.60;29.70;;;;;;484599;246;1100;-74
2021/10/24 10:03:12;;;;;;;;;;;24.60;29.70;;;;;;484606;246;2187;-74
2021/10/24 10:05:13;;;;;;;;;;;24.50;29.70;;;;;;484571;246;1148;-74
2021/10/24 10:07:15;;;;;;;;;;;24.60;29.70;;;;;;484510;242;1290;-74
2021/10/24 10:09:16;;;;;;;;;;;24.60;29.70;;;;;;484582;246;1199;-74
2021/10/24 10:11:18;;;;;;;;;;;24.60;29.70;;;;;;484503;246;1163;-74
2021/10/24 10:13:19;;;;;;;;;;;24.60;29.70;;;;;;484624;246;1218;-74
2021/10/24 10:15:21;;;;;;;;;;;24.60;29.70;;;;;;484529;246;958;-74
2021/10/24 10:17:22;;;;;;;;;;;24.60;29.70;;;;;;484492;242;1146;-74
2021/10/24 10:19:23;;;;;;;;;;;24.60;29.70;;;;;;484569;246;1010;-74
2021/10/24 10:21:25;;;;;;;;;;;24.60;29.70;;;;;;484474;246;2136;-74
2021/10/24 10:23:26;;;;;;;;;;;24.60;29.80;;;;;;484669;246;1114;-74
2021/10/24 10:25:27;;;;;;;;;;;24.60;29.90;;;;;;484642;246;962;-74
2021/10/24 10:27:28;;;;;;;;;;;24.60;29.90;;;;;;484689;246;1103;-74
2021/10/24 10:29:30;;;;;;;;;;;24.60;29.90;;;;;;484580;246;972;-74
2021/10/24 10:31:31;;;;;;;;;;;24.60;29.80;;;;;;484621;246;1120;-74
2021/10/24 10:33:33;;;;;;;;;;;24.70;29.80;;;;;;484595;246;1122;-74
2021/10/24 10:35:36;;;;;;;;;;;24.60;29.80;;;;;;484577;246;1343;-74
2021/10/24 10:37:35;;;;;;;;;;;24.60;29.90;;;;;;484338;246;1469;-74
2021/10/24 10:39:36;;;;;;;;;;;24.60;29.90;;;;;;484609;246;966;-74
2021/10/24 10:41:38;;;;;;;;;;;24.70;29.90;;;;;;484534;246;2187;-74
2021/10/24 10:43:39;;;;;;;;;;;24.60;29.90;;;;;;484576;246;963;-74
2021/10/24 10:45:40;;;;;;;;;;;24.60;29.90;;;;;;484600;246;1391;-74
2021/10/24 10:47:42;;;;;;;;;;;24.60;29.90;;;;;;484560;246;1070;-74
2021/10/24 10:49:43;;;;;;;;;;;24.70;29.90;;;;;;484589;246;1079;-74
2021/10/24 10:51:44;;;;;;;;;;;24.60;30.00;;;;;;484484;246;1269;-74
2021/10/24 10:53:46;;;;;;;;;;;24.60;30.00;;;;;;484557;246;1111;-74
2021/10/24 10:55:47;;;;;;;;;;;24.60;30.00;;;;;;484591;246;1036;-74
2021/10/24 10:57:48;;;;;;;;;;;24.60;30.00;;;;;;484523;246;1282;-74
2021/10/24 10:59:50;;;;;;;;;;;24.60;30.00;;;;;;484631;246;1056;-74
2021/10/24 11:01:51;;;;;;;;;;;24.70;30.00;;;;;;484477;246;2116;-74
2021/10/24 11:03:52;;;;;;;;;;;24.70;29.90;;;;;;484623;246;980;-74
2021/10/24 11:05:54;;;;;;;;;;;24.60;29.90;;;;;;484636;246;1348;-74
2021/10/24 11:07:55;;;;;;;;;;;24.60;30.00;;;;;;484658;246;1079;-74
2021/10/24 11:09:56;;;;;;;;;;;24.70;30.00;;;;;;484602;246;1021;-74
2021/10/24 11:11:58;;;;;;;;;;;24.70;30.00;;;;;;484635;246;1320;-74
2021/10/24 11:13:59;;;;;;;;;;;24.70;30.00;;;;;;484609;246;1090;-74
2021/10/24 11:16:00;;;;;;;;;;;24.70;30.00;;;;;;484526;246;1269;-74
2021/10/24 11:18:04;;;;;;;;;;;24.60;30.00;;;;;;484340;246;1166;-74
2021/10/24 11:20:04;;;;;;;;;;;24.60;30.00;;;;;;484444;246;1320;-74
2021/10/24 11:22:05;;;;;;;;;;;24.60;30.00;;;;;;484418;246;2203;-74
2021/10/24 11:24:06;;;;;;;;;;;24.60;30.00;;;;;;484583;246;1003;-74
2021/10/24 11:26:08;;;;;;;;;;;24.60;30.00;;;;;;484519;246;1237;-74
2021/10/24 11:28:09;;;;;;;;;;;24.60;30.00;;;;;;484675;246;1097;-74
2021/10/24 11:30:15;;;;;;;;;;;24.60;30.00;;;;;;484540;246;991;-74
2021/10/24 11:32:12;;;;;;;;;;;24.60;30.00;;;;;;484171;246;1366;-74
2021/10/24 11:34:13;;;;;;;;;;;24.70;30.00;;;;;;484550;246;1048;-74
2021/10/24 11:36:14;;;;;;;;;;;24.70;30.00;;;;;;484370;241;1224;-74
2021/10/24 11:38:16;;;;;;;;;;;24.70;30.00;;;;;;484517;246;1149;-74
2021/10/24 11:40:17;;;;;;;;;;;24.70;30.00;;;;;;484588;246;1021;-74
2021/10/24 11:42:18;;;;;;;;;;;24.70;30.10;;;;;;484501;246;2191;-74
2021/10/24 11:44:20;;;;;;;;;;;24.70;30.10;;;;;;484576;246;1066;-74
2021/10/24 11:46:21;;;;;;;;;;;24.70;30.10;;;;;;484605;246;1194;-74
2021/10/24 11:48:22;;;;;;;;;;;24.70;30.10;;;;;;484609;246;1131;-74
2021/10/24 11:50:24;;;;;;;;;;;24.70;30.00;;;;;;484551;246;1104;-74
2021/10/24 11:52:25;;;;;;;;;;;24.70;30.00;;;;;;484460;246;1224;-74
2021/10/24 11:54:26;;;;;;;;;;;24.80;30.00;;;;;;484538;246;985;-74
2021/10/24 11:56:39;;;;;;;;;;;24.80;30.10;;;;;;484535;246;1273;-74
2021/10/24 11:58:44;;;;;;;;;;;24.70;30.10;;;;;;484358;246;1495;-74